Time;durP1;ratioP1;P1;durP2;ratioP2;P2;SDS_P1;SDS_P2;PMS_P1;PMS_P2;Temp;Humidity;BMP_temperature;BMP_pressure;BME280_temperature;BME280_humidity;BME280_pressure;Samples;Min_cycle;Max_cycle;Signal;HPM_P1;HPM_P2
2021/08/24 00:02:18;;;;;;;28.97;13.00;;;;;;;20.03;53.80;100705.33;126226;1099;105521;-78
2021/08/24 00:04:50;;;;;;;23.67;11.90;;;;;;;19.99;53.68;100708.86;126341;1099;104312;-78
2021/08/24 00:07:20;;;;;;;25.17;12.60;;;;;;;19.95;54.25;100707.98;126277;1099;104140;-79
2021/08/24 00:09:51;;;;;;;26.00;12.47;;;;;;;19.96;54.32;100708.86;126303;1099;104209;-78
2021/08/24 00:12:22;;;;;;;27.43;13.37;;;;;;;19.96;54.59;100700.88;126209;1099;104171;-78
2021/08/24 00:14:52;;;;;;;27.63;12.13;;;;;;;19.95;54.58;100700.00;126305;1099;104303;-78
2021/08/24 00:17:23;;;;;;;28.00;12.47;;;;;;;19.95;54.43;100700.00;126258;1099;104165;-77
2021/08/24 00:19:53;;;;;;;26.83;12.80;;;;;;;19.94;54.55;100706.20;125210;1099;104149;-78
2021/08/24 00:22:24;;;;;;;26.57;12.73;;;;;;;19.92;54.56;100703.53;125484;1099;104204;-77
2021/08/24 00:24:55;;;;;;;25.83;12.50;;;;;;;19.94;54.46;100708.86;126325;1099;101703;-78
2021/08/24 00:27:25;;;;;;;26.13;12.33;;;;;;;19.93;54.59;100707.11;125575;1099;104152;-77
2021/08/24 00:29:57;;;;;;;31.27;12.57;;;;;;;19.93;54.61;100701.78;126334;1099;104159;-77
2021/08/24 00:32:29;;;;;;;24.03;12.17;;;;;;;19.93;54.91;100704.45;126235;1099;104191;-79
2021/08/24 00:35:00;;;;;;;28.23;13.47;;;;;;;19.92;54.79;100705.32;125263;1099;104679;-78
2021/08/24 00:37:31;;;;;;;29.87;12.97;;;;;;;19.92;54.76;100702.66;126292;1099;104139;-78
2021/08/24 00:40:01;;;;;;;27.33;12.77;;;;;;;19.87;55.10;100713.31;126300;1099;104293;-78
2021/08/24 00:42:32;;;;;;;25.97;13.00;;;;;;;19.87;55.32;100712.43;125281;1099;104162;-78
2021/08/24 00:45:03;;;;;;;22.67;12.17;;;;;;;19.88;55.16;100708.86;126312;1099;104300;-78
2021/08/24 00:47:36;;;;;;;28.20;13.43;;;;;;;19.86;55.30;100700.87;125545;1099;104156;-79
2021/08/24 00:50:22;;;;;;;36.60;13.50;;;;;;;19.89;55.36;100702.66;126316;1099;104223;-79
2021/08/24 00:53:09;;;;;;;25.53;12.73;;;;;;;19.92;55.67;100700.88;125159;1099;104207;-78
2021/08/24 00:55:44;;;;;;;25.60;12.77;;;;;;;19.95;55.37;100693.80;125111;1102;104173;-79
2021/08/24 00:58:18;;;;;;;26.07;13.23;;;;;;;19.96;55.59;100696.46;125216;1099;104232;-78
2021/08/24 01:00:49;;;;;;;25.80;12.90;;;;;;;19.98;55.38;100701.78;125291;1099;104258;-77
2021/08/24 01:03:23;;;;;;;27.23;12.83;;;;;;;19.97;55.95;100694.67;125174;1099;104169;-78
2021/08/24 01:06:05;;;;;;;28.23;13.37;;;;;;;19.94;55.94;100698.21;126331;1099;104184;-78
2021/08/24 01:08:46;;;;;;;26.53;13.10;;;;;;;19.92;55.51;100695.55;125263;1102;104150;-78
2021/08/24 01:11:26;;;;;;;26.73;14.30;;;;;;;19.90;56.33;100684.02;125271;1102;104290;-79
2021/08/24 01:14:09;;;;;;;31.47;14.93;;;;;;;19.90;55.85;100688.47;125261;1102;104175;-78
2021/08/24 01:16:44;;;;;;;29.65;14.80;;;;;;;19.90;55.91;100683.14;125237;1102;104293;-78
2021/08/24 01:19:40;;;;;;;30.17;15.67;;;;;;;19.88;56.85;100687.55;125277;1102;104264;-78
2021/08/24 01:22:32;;;;;;;31.50;15.63;;;;;;;19.82;56.38;100691.13;125268;1102;104219;-78
2021/08/24 01:25:06;;;;;;;29.33;14.30;;;;;;;19.77;56.93;100690.20;125177;1102;109182;-77
2021/08/24 01:27:41;;;;;;;24.87;12.10;;;;;;;19.72;56.23;100687.51;125207;1102;104143;-79
2021/08/24 01:30:24;;;;;;;26.47;11.90;;;;;;;19.69;57.41;100681.30;125260;1102;104166;-78
2021/08/24 01:33:12;;;;;;;29.30;15.17;;;;;;;19.67;57.44;100683.96;125257;1102;104273;-78
2021/08/24 01:36:10;;;;;;;33.03;16.13;;;;;;;19.68;56.74;100684.84;125282;1102;119055;-78
2021/08/24 01:38:52;;;;;;;28.57;16.03;;;;;;;19.65;57.20;100685.75;125226;1102;104329;-79
2021/08/24 01:41:49;;;;;;;32.70;15.93;;;;;;;19.60;57.15;100689.27;126292;1099;104143;-77
2021/08/24 01:44:35;;;;;;;29.57;15.57;;;;;;;19.58;57.52;100684.83;125202;1098;104159;-78
2021/08/24 01:47:14;;;;;;;32.17;14.30;;;;;;;19.56;57.45;100680.41;125414;1099;104232;-78
2021/08/24 01:49:50;;;;;;;32.27;14.53;;;;;;;19.55;57.57;100679.50;126278;1099;104143;-78
2021/08/24 01:52:23;;;;;;;30.40;14.90;;;;;;;19.56;57.17;100677.75;126277;1099;104137;-77
2021/08/24 01:55:00;;;;;;;34.60;15.00;;;;;;;19.53;57.18;100675.95;125188;1099;104252;-79
2021/08/24 01:57:35;;;;;;;28.10;13.00;;;;;;;19.52;57.58;100683.94;125369;1099;104143;-78
2021/08/24 02:00:11;;;;;;;30.55;13.60;;;;;;;19.50;57.57;100678.61;126294;1099;104137;-78
2021/08/24 02:02:47;;;;;;;31.07;12.77;;;;;;;19.49;57.45;100679.48;126334;1099;104146;-79
2021/08/24 02:05:23;;;;;;;32.07;13.63;;;;;;;19.48;57.24;100679.52;126227;1099;104280;-78
2021/08/24 02:08:00;;;;;;;29.63;12.77;;;;;;;19.47;57.34;100677.73;126315;1099;104570;-78
2021/08/24 02:10:31;;;;;;;31.97;13.70;;;;;;;19.47;57.68;100673.28;126311;1099;104669;-77
2021/08/24 02:13:04;;;;;;;28.13;13.03;;;;;;;19.47;57.29;100664.42;126295;1099;104197;-78
2021/08/24 02:15:40;;;;;;;28.73;13.10;;;;;;;19.47;57.43;100664.42;126233;1099;105576;-78
2021/08/24 02:18:16;;;;;;;35.37;14.00;;;;;;;19.46;57.91;100657.31;125339;1099;104408;-78
2021/08/24 02:20:54;;;;;;;29.07;13.97;;;;;;;19.41;57.31;100659.96;126301;1099;104195;-78
2021/08/24 02:23:30;;;;;;;29.05;14.50;;;;;;;19.39;57.86;100662.62;125280;1099;104246;-78
2021/08/24 02:26:05;;;;;;;30.37;15.30;;;;;;;19.36;57.70;100665.27;126256;1099;104710;-78
2021/08/24 02:28:38;;;;;;;33.20;15.70;;;;;;;19.33;58.35;100657.28;126306;1099;104172;-77
2021/08/24 02:31:16;;;;;;;38.80;17.03;;;;;;;19.30;58.14;100659.06;126294;1099;104140;-78
2021/08/24 02:34:07;;;;;;;32.40;16.40;;;;;;;19.27;58.21;100661.71;126310;1099;104166;-78
2021/08/24 02:36:42;;;;;;;36.20;16.30;;;;;;;19.21;58.03;100659.91;126262;1099;104181;-77
2021/08/24 02:39:21;;;;;;;35.00;15.43;;;;;;;19.16;58.41;100653.70;125393;1099;104281;-77
2021/08/24 02:42:00;;;;;;;37.43;16.37;;;;;;;19.14;58.32;100652.82;126331;1099;104169;-78
2021/08/24 02:44:38;;;;;;;36.77;15.80;;;;;;;19.13;58.64;100649.25;125293;1099;104181;-79
2021/08/24 02:47:10;;;;;;;38.80;16.33;;;;;;;19.08;58.86;100650.14;126284;1099;104191;-79
2021/08/24 02:49:41;;;;;;;38.00;16.43;;;;;;;19.03;58.46;100645.69;125330;1099;104319;-79
2021/08/24 02:52:13;;;;;;;35.50;16.77;;;;;;;19.05;58.97;100648.34;126309;1098;104150;-78
2021/08/24 02:54:46;;;;;;;42.63;16.90;;;;;;;19.02;58.65;100643.02;126320;1099;104137;-79
2021/08/24 02:57:17;;;;;;;35.95;17.20;;;;;;;18.99;59.12;100641.22;126284;1099;108677;-78
2021/08/24 02:59:48;;;;;;;39.03;17.37;;;;;;;18.98;58.77;100643.87;126325;1099;104175;-79
2021/08/24 03:02:21;;;;;;;34.23;15.30;;;;;;;18.94;59.04;100637.67;126253;1099;104248;-78
2021/08/24 03:04:52;;;;;;;33.30;15.83;;;;;;;18.88;59.06;100644.75;126304;1099;104165;-78
2021/08/24 03:07:27;;;;;;;36.73;16.50;;;;;;;18.83;58.86;100640.25;126293;1099;104195;-78
2021/08/24 03:10:01;;;;;;;41.60;16.00;;;;;;;18.80;59.24;100647.34;126294;1099;104450;-78
2021/08/24 03:12:40;;;;;;;31.93;15.63;;;;;;;18.80;59.43;100639.36;125263;1099;104185;-78
2021/08/24 03:15:17;;;;;;;38.50;15.57;;;;;;;18.80;59.44;100645.56;126300;1099;104156;-78
2021/08/24 03:17:53;;;;;;;32.77;15.87;;;;;;;18.80;59.39;100637.58;126222;1099;104325;-77
2021/08/24 03:20:30;;;;;;;31.80;14.33;;;;;;;18.82;59.36;100643.81;125284;1099;102831;-78
2021/08/24 03:23:04;;;;;;;35.57;15.63;;;;;;;18.83;59.61;100650.01;126263;1099;104248;-79
2021/08/24 03:25:36;;;;;;;30.23;14.40;;;;;;;18.81;59.11;100646.47;126354;1099;104145;-79
2021/08/24 03:28:11;;;;;;;29.07;14.60;;;;;;;18.80;59.31;100644.68;125324;1099;112079;-78
2021/08/24 03:30:43;;;;;;;30.33;15.33;;;;;;;18.76;59.43;100641.13;126339;1099;104156;-78
2021/08/24 03:33:15;;;;;;;30.60;14.77;;;;;;;18.75;59.74;100642.00;126317;1099;104749;-79
2021/08/24 03:35:47;;;;;;;33.70;15.70;;;;;;;18.73;59.89;100646.44;126277;1099;104146;-79
2021/08/24 03:38:18;;;;;;;31.30;14.80;;;;;;;18.73;59.70;100645.52;126249;1099;105575;-78
2021/08/24 03:40:50;;;;;;;34.20;14.80;;;;;;;18.71;59.69;100644.64;126342;1099;104146;-80
2021/08/24 03:43:21;;;;;;;33.80;15.13;;;;;;;18.73;59.56;100640.20;126296;1099;104192;-78
2021/08/24 03:45:53;;;;;;;35.30;14.60;;;;;;;18.72;59.79;100652.62;126276;1099;104217;-79
2021/08/24 03:48:28;;;;;;;33.30;15.23;;;;;;;18.73;60.00;100649.09;126247;1099;101842;-77
2021/08/24 03:51:07;;;;;;;;;;;;;;;18.73;59.13;100645.52;125549;1099;104627;-79
2021/08/24 03:53:38;;;;;;;32.40;15.53;;;;;;;18.75;59.93;100641.13;126357;1099;104141;-78
2021/08/24 03:56:09;;;;;;;30.93;14.70;;;;;;;18.76;59.90;100643.79;126339;1099;104162;-78
2021/08/24 03:58:41;;;;;;;37.50;15.87;;;;;;;18.77;60.41;100639.34;126281;1099;104225;-79
2021/08/24 04:01:18;;;;;;;27.83;14.20;;;;;;;18.79;60.28;100637.58;125694;1099;104217;-79
2021/08/24 04:03:49;;;;;;;32.33;14.33;;;;;;;18.81;60.32;100636.71;126316;1099;104197;-78
2021/08/24 04:06:20;;;;;;;30.83;15.33;;;;;;;18.81;60.04;100635.83;126334;1099;104133;-79
2021/08/24 04:08:50;;;;;;;45.97;16.37;;;;;;;18.84;60.21;100641.16;125199;1099;104592;-78
2021/08/24 04:11:21;;;;;;;34.15;16.25;;;;;;;18.83;60.00;100634.06;126307;1099;104784;-78
2021/08/24 04:13:54;;;;;;;35.57;16.10;;;;;;;18.82;60.06;100634.93;126265;1098;104139;-78
2021/08/24 04:16:30;;;;;;;50.50;17.50;;;;;;;18.80;60.16;100634.05;125383;1102;104172;-78
2021/08/24 04:19:02;;;;;;;;;;;;;;;18.81;60.04;100635.83;126253;1099;104205;-79
2021/08/24 04:21:39;;;;;;;44.23;16.70;;;;;;;18.84;60.65;100625.22;126323;1099;104242;-77
2021/08/24 04:24:12;;;;;;;31.00;14.60;;;;;;;18.88;60.54;100632.33;126278;1099;104207;-79
2021/08/24 04:26:43;;;;;;;32.33;15.03;;;;;;;18.95;60.76;100643.91;126246;1098;104161;-78
2021/08/24 04:29:15;;;;;;;32.97;14.73;;;;;;;19.01;60.73;100639.48;126192;1099;104174;-78
2021/08/24 04:31:47;;;;;;;32.75;14.43;;;;;;;19.06;60.74;100636.84;125173;1099;104611;-78
2021/08/24 04:34:19;;;;;;;33.57;15.47;;;;;;;19.14;60.60;100644.84;125400;1099;104318;-78
2021/08/24 04:36:50;;;;;;;38.13;15.73;;;;;;;19.15;60.50;100639.53;126349;1099;104311;-78
2021/08/24 04:39:21;;;;;;;38.10;15.63;;;;;;;19.19;60.88;100640.41;125147;1099;104213;-78
2021/08/24 04:41:52;;;;;;;40.43;15.60;;;;;;;19.21;60.77;100649.27;126315;1099;104198;-78
2021/08/24 04:44:23;;;;;;;31.35;15.50;;;;;;;19.25;60.90;100648.41;126270;1099;104165;-78
2021/08/24 04:46:53;;;;;;;36.40;16.40;;;;;;;19.29;60.42;100647.55;126307;1099;104194;-78
2021/08/24 04:49:33;;;;;;;33.10;15.47;;;;;;;19.33;60.45;100646.64;125228;1099;104140;-78
2021/08/24 04:52:06;;;;;;;35.63;15.70;;;;;;;19.37;60.69;100655.54;126281;1099;104293;-79
2021/08/24 04:54:36;;;;;;;34.77;15.40;;;;;;;19.41;60.42;100654.64;126305;1099;104188;-78
2021/08/24 04:57:10;;;;;;;34.33;16.00;;;;;;;19.44;60.75;100651.98;126296;1099;104177;-78
2021/08/24 04:59:41;;;;;;;35.90;16.27;;;;;;;19.52;60.74;100652.00;126251;1098;104262;-80
2021/08/24 05:02:13;;;;;;;41.47;16.53;;;;;;;19.60;60.11;100644.03;125434;1099;104246;-79
2021/08/24 05:04:43;;;;;;;37.57;15.70;;;;;;;19.68;60.94;100643.16;126296;1099;104258;-78
2021/08/24 05:07:14;;;;;;;28.10;14.90;;;;;;;19.73;59.73;100644.03;126359;1099;104143;-78
2021/08/24 05:09:47;;;;;;;30.37;14.13;;;;;;;19.80;60.02;100646.73;125219;1099;104594;-79
2021/08/24 05:12:18;;;;;;;29.33;14.23;;;;;;;19.86;59.63;100642.29;126332;1099;104280;-79
2021/08/24 05:14:48;;;;;;;31.25;13.90;;;;;;;19.91;59.50;100639.63;126175;1099;104141;-78
2021/08/24 05:17:20;;;;;;;30.43;14.03;;;;;;;19.96;59.76;100642.28;126174;1099;104274;-79
2021/08/24 05:19:52;;;;;;;32.33;14.03;;;;;;;20.02;59.81;100640.50;125299;1099;104191;-79
2021/08/24 05:22:28;;;;;;;27.50;13.33;;;;;;;20.04;59.38;100641.41;125412;1099;104236;-77
2021/08/24 05:25:02;;;;;;;28.00;13.00;;;;;;;20.09;59.06;100644.94;126249;1099;104174;-79
2021/08/24 05:27:36;;;;;;;27.63;11.43;;;;;;;20.16;58.76;100652.92;125343;1099;104133;-80
2021/08/24 05:30:13;;;;;;;21.17;10.47;;;;;;;20.20;59.17;100649.38;125229;1099;104239;-77
2021/08/24 05:32:47;;;;;;;26.57;11.33;;;;;;;20.24;58.22;100649.38;126161;1099;104153;-77
2021/08/24 05:35:24;;;;;;;20.70;8.85;;;;;;;20.29;57.73;100652.03;125191;1099;104223;-77
2021/08/24 05:37:56;;;;;;;22.37;9.73;;;;;;;20.34;57.31;100650.23;125292;1099;104191;-78
2021/08/24 05:40:27;;;;;;;17.27;8.90;;;;;;;20.38;57.07;100649.34;126003;1099;104325;-77
2021/08/24 05:43:03;;;;;;;24.17;9.97;;;;;;;20.45;56.89;100645.75;126050;1098;104149;-77
2021/08/24 05:45:38;;;;;;;20.40;9.70;;;;;;;20.54;56.26;100644.86;126194;1099;104174;-79
2021/08/24 05:48:13;;;;;;;23.40;9.13;;;;;;;20.60;55.96;100642.17;126060;1099;104223;-77
2021/08/24 05:50:46;;;;;;;23.43;10.17;;;;;;;20.67;55.72;100644.85;125275;1099;104185;-77
2021/08/24 05:53:22;;;;;;;28.33;10.27;;;;;;;20.71;56.29;100642.17;126228;1099;104235;-78
2021/08/24 05:55:57;;;;;;;23.93;9.47;;;;;;;20.74;55.30;100638.58;125173;1099;104397;-79
2021/08/24 05:58:30;;;;;;;22.25;9.60;;;;;;;20.77;55.14;100633.23;125983;1099;104221;-78
2021/08/24 06:01:05;;;;;;;23.07;10.30;;;;;;;20.79;54.37;100640.34;126112;1099;104187;-78
2021/08/24 06:03:39;;;;;;;25.77;9.50;;;;;;;20.85;54.36;100641.20;125975;1099;104179;-78
2021/08/24 06:06:21;;;;;;;23.73;9.30;;;;;;;20.90;54.55;100645.64;126110;1099;104159;-78
2021/08/24 06:08:58;;;;;;;19.83;9.53;;;;;;;20.98;54.29;100642.94;125275;1099;104492;-80
2021/08/24 06:11:35;;;;;;;17.60;8.37;;;;;;;21.05;53.18;100644.69;126078;1099;104146;-78
2021/08/24 06:14:10;;;;;;;20.03;8.57;;;;;;;21.12;53.21;100643.74;126035;1099;104222;-77
2021/08/24 06:16:43;;;;;;;21.80;9.10;;;;;;;21.19;53.67;100647.25;126079;1099;104175;-78
2021/08/24 06:19:20;;;;;;;21.60;9.40;;;;;;;21.27;54.01;100644.55;126129;1099;104219;-78
2021/08/24 06:21:53;;;;;;;22.00;8.50;;;;;;;21.34;53.49;100635.62;126152;1099;107053;-77
2021/08/24 06:24:27;;;;;;;19.03;8.27;;;;;;;21.40;53.45;100638.25;125362;1099;104169;-77
2021/08/24 06:26:59;;;;;;;27.57;8.67;;;;;;;21.44;52.69;100637.34;126198;1099;104220;-78
2021/08/24 06:29:30;;;;;;;18.47;7.50;;;;;;;21.46;52.71;100632.86;126132;1098;104257;-77
2021/08/24 06:32:05;;;;;;;20.37;8.47;;;;;;;21.50;51.91;100626.66;125407;1099;104391;-77
2021/08/24 06:34:39;;;;;;;20.30;8.60;;;;;;;21.60;52.48;100634.56;125239;1099;104370;-76
2021/08/24 06:37:11;;;;;;;18.00;8.30;;;;;;;21.66;52.33;100631.84;126295;1099;101956;-77
2021/08/24 06:39:45;;;;;;;19.80;8.87;;;;;;;21.72;52.15;100632.70;125188;1099;104221;-78
2021/08/24 06:42:15;;;;;;;17.85;8.20;;;;;;;21.80;51.69;100639.75;125185;1099;104158;-79
2021/08/24 06:44:50;;;;;;;19.13;8.50;;;;;;;21.87;51.45;100628.13;126183;1099;104143;-78
2021/08/24 06:47:24;;;;;;;17.60;8.17;;;;;;;21.96;51.00;100630.72;126140;1099;104195;-77
2021/08/24 06:49:56;;;;;;;20.23;8.30;;;;;;;22.05;50.57;100627.95;126194;1099;104255;-78
2021/08/24 06:52:27;;;;;;;20.77;8.20;;;;;;;22.14;51.39;100626.09;126250;1099;104255;-78
2021/08/24 06:55:00;;;;;;;16.37;8.17;;;;;;;22.25;51.13;100630.44;126274;1098;104149;-77
2021/08/24 06:57:34;;;;;;;20.33;8.33;;;;;;;22.35;50.25;100625.90;125266;1099;104229;-78
2021/08/24 07:00:08;;;;;;;21.90;9.70;;;;;;;22.45;50.21;100624.00;126248;1099;104188;-79
2021/08/24 07:02:46;;;;;;;18.97;7.73;;;;;;;22.57;50.61;100629.21;125423;1099;104261;-77
2021/08/24 07:05:22;;;;;;;18.07;7.90;;;;;;;22.69;50.54;100627.28;126135;1099;104595;-76
2021/08/24 07:07:56;;;;;;;20.03;8.23;;;;;;;22.81;50.39;100619.11;126174;1098;104189;-77
2021/08/24 07:10:40;;;;;;;19.97;7.83;;;;;;;22.94;50.07;100623.41;125395;1099;104201;-77
2021/08/24 07:13:14;;;;;;;19.48;7.60;;;;;;;23.10;50.03;100634.81;126244;1099;104535;-77
2021/08/24 07:15:47;;;;;;;20.00;7.63;;;;;;;23.20;49.82;100635.55;125267;1099;104245;-75
2021/08/24 07:18:20;;;;;;;18.45;7.40;;;;;;;23.31;49.75;100633.63;126179;1099;104156;-77
2021/08/24 07:20:53;;;;;;;19.43;7.40;;;;;;;23.42;49.21;100633.47;126186;1099;104168;-77
2021/08/24 07:23:25;;;;;;;18.50;7.07;;;;;;;23.55;49.54;100636.84;126053;1099;104204;-77
2021/08/24 07:25:57;;;;;;;18.33;7.73;;;;;;;23.72;48.76;100641.02;126178;1099;104361;-79
2021/08/24 07:28:35;;;;;;;17.15;7.40;;;;;;;23.86;48.31;100639.05;125256;1100;104322;-79
2021/08/24 07:31:08;;;;;;;18.77;7.77;;;;;;;24.00;48.83;100639.69;125174;1100;104309;-77
2021/08/24 07:33:41;;;;;;;18.75;7.22;;;;;;;24.14;48.67;100634.09;125206;1102;104323;-77
2021/08/24 07:36:14;;;;;;;22.60;7.40;;;;;;;24.28;48.60;100636.52;125243;1102;104315;-78
2021/08/24 07:38:47;;;;;;;15.70;7.47;;;;;;;24.40;48.21;100635.38;125290;1102;104287;-76
2021/08/24 07:41:18;;;;;;;17.53;7.33;;;;;;;24.52;47.90;100632.45;125126;1102;104156;-75
2021/08/24 07:43:51;;;;;;;18.83;7.47;;;;;;;24.63;48.06;100632.27;125224;1102;104162;-75
2021/08/24 07:46:47;;;;;;;18.83;7.77;;;;;;;24.73;48.39;100631.18;125212;1102;104249;-76
2021/08/24 07:49:22;;;;;;;19.07;8.00;;;;;;;24.83;47.91;100630.98;125172;1100;104322;-77
2021/08/24 07:51:55;;;;;;;23.60;7.80;;;;;;;24.91;48.19;100635.25;125225;1102;104181;-77
2021/08/24 07:54:31;;;;;;;17.75;7.97;;;;;;;25.00;47.49;100639.55;125278;1102;104191;-76
2021/08/24 07:57:06;;;;;;;20.47;7.33;;;;;;;25.11;47.93;100629.45;125242;1100;104226;-78
2021/08/24 07:59:36;;;;;;;20.40;7.43;;;;;;;25.29;47.50;100627.29;125321;1099;104159;-78
2021/08/24 08:02:13;;;;;;;21.10;7.60;;;;;;;25.43;47.45;100632.34;126123;1099;104159;-78
2021/08/24 08:04:48;;;;;;;16.43;7.17;;;;;;;25.54;47.33;100630.30;126123;1099;104140;-78
2021/08/24 08:07:22;;;;;;;20.50;7.30;;;;;;;25.63;47.30;100626.48;126301;1099;104140;-77
2021/08/24 08:09:53;;;;;;;18.20;7.93;;;;;;;25.75;47.72;100634.25;125264;1102;104248;-77
2021/08/24 08:12:27;;;;;;;17.65;6.45;;;;;;;25.85;47.47;100624.13;125187;1102;104153;-78
2021/08/24 08:14:58;;;;;;;19.93;6.73;;;;;;;26.02;47.44;100623.73;125156;1102;104278;-77
2021/08/24 08:17:30;;;;;;;15.70;6.37;;;;;;;26.16;47.25;100618.89;125205;1102;104407;-77
2021/08/24 08:20:09;;;;;;;16.70;6.40;;;;;;;26.29;46.72;100618.56;125289;1102;104386;-77
2021/08/24 08:22:43;;;;;;;15.23;6.70;;;;;;;26.43;46.39;100613.67;125167;1102;104309;-76
2021/08/24 08:25:15;;;;;;;14.17;5.70;;;;;;;26.56;46.12;100616.88;125278;1102;104341;-76
2021/08/24 08:27:47;;;;;;;18.40;7.22;;;;;;;26.61;45.86;100611.38;125244;1102;104178;-77
2021/08/24 08:30:20;;;;;;;22.25;6.70;;;;;;;26.70;45.78;100612.01;125206;1102;104463;-76
2021/08/24 08:32:55;;;;;;;10.57;5.30;;;;;;;26.79;44.95;100610.86;125253;1102;104160;-77
2021/08/24 08:35:28;;;;;;;13.10;5.30;;;;;;;26.95;44.47;100610.41;125255;1102;104156;-78
2021/08/24 08:38:01;;;;;;;13.40;5.10;;;;;;;27.06;43.97;100609.13;125286;1102;104386;-79
2021/08/24 08:40:49;;;;;;;14.60;5.50;;;;;;;27.20;44.12;100599.74;125214;1102;104807;-78
2021/08/24 08:43:33;;;;;;;11.33;5.00;;;;;;;27.32;44.01;100596.69;125246;1102;104325;-78
2021/08/24 08:46:16;;;;;;;11.83;5.17;;;;;;;27.38;43.60;100601.02;125214;1101;103995;-80
2021/08/24 08:49:01;;;;;;;12.17;5.17;;;;;;;27.45;43.01;100602.55;125243;1102;104229;-77
2021/08/24 08:51:48;;;;;;;11.13;4.87;;;;;;;27.53;42.88;100592.39;125220;1102;104271;-77
2021/08/24 08:54:29;;;;;;;12.40;5.00;;;;;;;27.65;42.88;100599.20;125206;1102;104252;-76
2021/08/24 08:57:11;;;;;;;9.20;4.67;;;;;;;27.74;41.81;100596.19;125177;1102;104316;-76
2021/08/24 08:59:50;;;;;;;10.13;4.97;;;;;;;27.79;41.28;100585.25;125257;1101;104219;-76
2021/08/24 09:02:35;;;;;;;10.27;4.33;;;;;;;27.83;40.60;100586.92;125230;1102;104378;-77
2021/08/24 09:05:09;;;;;;;13.00;4.50;;;;;;;27.91;41.21;100576.73;125218;1102;104242;-77
2021/08/24 09:07:49;;;;;;;9.83;4.07;;;;;;;28.07;40.93;100578.93;125200;1102;104306;-77
2021/08/24 09:10:40;;;;;;;13.17;4.57;;;;;;;28.20;40.58;100579.36;125168;1102;104155;-79
2021/08/24 09:13:25;;;;;;;10.23;4.50;;;;;;;28.25;40.22;100580.06;125148;1102;104439;-77
2021/08/24 09:16:05;;;;;;;7.93;4.60;;;;;;;28.29;40.00;100569.10;125827;1099;104188;-78
2021/08/24 09:18:45;;;;;;;9.20;4.73;;;;;;;28.33;40.43;100572.59;125259;1102;104169;-77
2021/08/24 09:21:25;;;;;;;8.43;4.37;;;;;;;28.31;39.59;100569.05;126223;1099;104173;-77
2021/08/24 09:23:58;;;;;;;8.63;4.50;;;;;;;28.40;38.71;100566.00;126106;1099;104319;-77
2021/08/24 09:26:50;;;;;;;13.67;4.30;;;;;;;28.48;38.54;100565.72;125180;1102;104172;-78
2021/08/24 09:29:28;;;;;;;9.90;4.30;;;;;;;28.59;38.26;100565.34;126177;1099;104271;-77
2021/08/24 09:32:02;;;;;;;10.00;4.40;;;;;;;28.68;38.17;100560.47;125417;1099;104179;-78
2021/08/24 09:34:39;;;;;;;9.63;4.10;;;;;;;28.73;37.07;100562.12;125131;1102;104155;-77
2021/08/24 09:37:13;;;;;;;6.83;4.27;;;;;;;28.76;37.09;100556.59;125154;1102;104598;-76
2021/08/24 09:39:52;;;;;;;8.17;4.13;;;;;;;28.80;36.82;100558.25;125232;1102;104309;-76
2021/08/24 09:42:35;;;;;;;8.47;4.43;;;;;;;28.81;36.53;100549.19;125211;1102;104220;-76
2021/08/24 09:45:25;;;;;;;10.63;4.03;;;;;;;28.80;36.69;100545.62;125231;1102;104133;-76
2021/08/24 09:48:11;;;;;;;12.30;4.35;;;;;;;28.78;35.46;100546.61;125243;1102;104434;-76
2021/08/24 09:50:45;;;;;;;7.17;4.10;;;;;;;28.82;35.38;100550.95;125181;1102;104320;-76
2021/08/24 09:53:34;;;;;;;8.40;3.90;;;;;;;28.85;34.94;100548.14;125231;1102;104232;-76
2021/08/24 09:56:10;;;;;;;8.07;4.00;;;;;;;28.93;35.28;100539.73;125237;1102;104178;-75
2021/08/24 09:58:46;;;;;;;8.23;4.00;;;;;;;28.99;34.96;100550.29;125223;1102;104261;-75
2021/08/24 10:01:18;;;;;;;9.23;4.57;;;;;;;29.01;34.63;100549.27;125177;1102;104201;-75
2021/08/24 10:04:06;;;;;;;8.97;4.60;;;;;;;29.00;34.78;100546.63;125079;1101;104489;-76
2021/08/24 10:06:41;;;;;;;9.10;4.30;;;;;;;29.03;34.71;100544.70;125143;1100;104162;-76
2021/08/24 10:09:20;;;;;;;7.07;3.97;;;;;;;29.01;33.91;100546.56;126011;1099;104158;-76
2021/08/24 10:11:51;;;;;;;9.87;4.27;;;;;;;29.09;34.46;100545.39;126194;1099;104146;-77
2021/08/24 10:14:30;;;;;;;12.10;4.10;;;;;;;29.07;34.01;100539.18;125307;1099;104294;-75
2021/08/24 10:17:00;;;;;;;10.33;4.40;;;;;;;29.03;33.55;100538.40;126144;1099;104235;-75
2021/08/24 10:19:36;;;;;;;7.57;3.60;;;;;;;29.03;33.91;100539.30;125294;1099;104264;-77
2021/08/24 10:22:10;;;;;;;12.47;4.10;;;;;;;29.08;33.32;100538.21;125247;1099;104188;-76
2021/08/24 10:24:58;;;;;;;6.80;3.63;;;;;;;29.18;33.50;100536.91;125219;1099;104165;-76
2021/08/24 10:27:32;;;;;;;9.10;4.07;;;;;;;29.15;32.99;100537.03;126112;1099;118603;-75
2021/08/24 10:30:08;;;;;;;6.50;4.13;;;;;;;29.25;33.07;100526.75;125124;1099;104175;-76
2021/08/24 10:32:45;;;;;;;7.27;3.90;;;;;;;29.29;33.08;100526.55;126113;1099;104289;-76
2021/08/24 10:35:23;;;;;;;8.27;3.97;;;;;;;29.35;33.40;100520.89;126060;1099;104598;-76
2021/08/24 10:37:56;;;;;;;8.17;3.90;;;;;;;29.40;33.29;100524.30;126188;1098;104168;-75
2021/08/24 10:40:41;;;;;;;6.27;4.00;;;;;;;29.40;32.52;100527.01;126153;1099;104143;-75
2021/08/24 10:43:25;;;;;;;7.67;3.77;;;;;;;29.35;31.49;100525.43;126100;1099;104239;-74
2021/08/24 10:46:14;;;;;;;5.47;3.67;;;;;;;29.26;32.11;100521.28;126008;1099;104165;-76
2021/08/24 10:48:46;;;;;;;10.80;4.30;;;;;;;29.31;32.12;100512.98;126118;1099;104561;-75
2021/08/24 10:51:43;;;;;;;7.13;4.20;;;;;;;29.38;32.05;100507.25;125144;1102;103066;-75
2021/08/24 10:54:30;;;;;;;7.73;4.43;;;;;;;29.42;31.96;100513.43;126099;1099;104161;-76
2021/08/24 10:57:20;;;;;;;10.53;4.30;;;;;;;29.46;31.79;100511.47;125197;1099;104393;-75
2021/08/24 11:00:02;;;;;;;9.25;4.45;;;;;;;29.54;32.03;100512.88;126140;1099;104172;-76
2021/08/24 11:02:50;;;;;;;11.63;4.90;;;;;;;29.57;31.88;100510.04;125262;1099;104322;-75
2021/08/24 11:05:32;;;;;;;9.33;3.83;;;;;;;29.63;32.39;100511.61;126141;1099;104208;-76
2021/08/24 11:08:15;;;;;;;9.10;3.87;;;;;;;29.60;31.89;100506.33;125319;1099;104226;-80
2021/08/24 11:10:57;;;;;;;12.20;4.57;;;;;;;29.54;31.73;100502.06;125241;1099;104634;-76
2021/08/24 11:13:42;;;;;;;11.10;4.55;;;;;;;29.54;31.83;100493.95;126249;1099;104961;-76
2021/08/24 11:16:32;;;;;;;11.60;4.70;;;;;;;29.59;32.09;100493.75;126211;1099;104274;-81
2021/08/24 11:19:14;;;;;;;9.10;4.53;;;;;;;29.65;32.00;100490.78;126317;1099;104286;-78
2021/08/24 11:21:50;;;;;;;10.33;4.60;;;;;;;29.67;32.14;100497.02;126156;1099;104247;-77
2021/08/24 11:24:31;;;;;;;13.07;5.00;;;;;;;29.70;32.25;100494.19;125951;1099;104776;-77
2021/08/24 11:27:13;;;;;;;9.53;4.60;;;;;;;29.71;32.10;100476.99;126239;1099;104156;-77
2021/08/24 11:29:49;;;;;;;9.47;4.50;;;;;;;29.72;32.34;100472.48;125213;1099;104169;-77
2021/08/24 11:32:24;;;;;;;11.67;5.00;;;;;;;29.73;32.50;100482.33;126236;1099;104309;-76
2021/08/24 11:35:04;;;;;;;13.17;4.70;;;;;;;29.78;32.38;100479.42;126197;1099;104169;-77
2021/08/24 11:37:44;;;;;;;10.17;4.83;;;;;;;29.87;32.60;100476.34;125160;1099;104175;-79
2021/08/24 11:40:21;;;;;;;10.33;5.00;;;;;;;29.88;32.42;100475.41;126264;1099;104249;-77